createdAt,value
2017-12-20T00:00:29.783Z,41.47
2017-12-20T00:02:58.074Z,37.58
2017-12-20T00:05:27.154Z,38.08
2017-12-20T00:07:54.642Z,41.88
2017-12-20T00:10:23.206Z,39.03
2017-12-20T00:12:52.382Z,39.83
2017-12-20T00:15:20.751Z,38.17
2017-12-20T00:17:48.249Z,36.60
2017-12-20T00:20:17.118Z,36.42
2017-12-20T00:22:45.984Z,37.65
2017-12-20T00:25:17.610Z,37.90
2017-12-20T00:27:46.027Z,39.25
2017-12-20T00:30:14.881Z,37.75
2017-12-20T00:32:42.401Z,38.28
2017-12-20T00:35:09.883Z,39.40
2017-12-20T00:37:37.903Z,39.33
2017-12-20T00:40:07.114Z,39.00
2017-12-20T00:42:36.264Z,35.45
2017-12-20T00:45:03.750Z,37.47
2017-12-20T00:47:31.246Z,37.83
2017-12-20T00:50:01.334Z,36.50
2017-12-20T00:52:30.236Z,35.45
2017-12-20T00:54:58.658Z,36.70
2017-12-20T00:57:26.156Z,38.83
2017-12-20T00:59:54.750Z,39.20
2017-12-20T01:02:23.182Z,36.72
2017-12-20T01:04:51.020Z,39.22
2017-12-20T01:07:20.159Z,38.80
2017-12-20T01:09:47.659Z,36.10
2017-12-20T01:12:15.888Z,36.38
2017-12-20T01:14:44.165Z,37.65
2017-12-20T01:17:11.690Z,36.88
2017-12-20T01:19:41.058Z,37.97
2017-12-20T01:22:09.315Z,38.10
2017-12-20T01:24:39.806Z,38.25
2017-12-20T01:27:08.071Z,38.78
2017-12-20T01:29:36.830Z,36.78
2017-12-20T01:32:05.138Z,36.38
2017-12-20T01:34:32.970Z,42.08
2017-12-20T01:37:01.842Z,38.22
2017-12-20T01:39:29.351Z,42.62
2017-12-20T01:41:56.821Z,43.10
2017-12-20T01:44:24.322Z,42.70
2017-12-20T01:46:52.615Z,41.60
2017-12-20T01:49:20.105Z,42.13
2017-12-20T01:51:48.378Z,42.33
2017-12-20T01:54:18.338Z,41.88
2017-12-20T01:56:46.054Z,41.97
2017-12-20T01:59:14.468Z,40.75
2017-12-20T02:01:41.975Z,39.22
2017-12-20T02:04:09.735Z,43.13
2017-12-20T02:06:37.227Z,41.17
2017-12-20T02:09:06.214Z,42.75
2017-12-20T02:11:35.410Z,44.92
2017-12-20T02:14:04.275Z,42.22
2017-12-20T02:16:32.538Z,43.55
2017-12-20T02:19:00.958Z,40.53
2017-12-20T02:21:29.400Z,39.42
2017-12-20T02:23:57.846Z,39.65
2017-12-20T02:26:25.326Z,39.58
2017-12-20T02:28:54.213Z,36.45
2017-12-20T02:31:22.667Z,35.78
2017-12-20T02:33:51.688Z,37.47
2017-12-20T02:36:20.314Z,36.30
2017-12-20T02:38:49.230Z,33.70
2017-12-20T02:41:18.326Z,33.38
2017-12-20T02:43:49.942Z,33.55
2017-12-20T02:46:18.704Z,34.95
2017-12-20T02:48:46.200Z,34.72
2017-12-20T02:51:13.706Z,36.08
2017-12-20T02:53:41.193Z,35.50
2017-12-20T02:56:08.676Z,35.53
2017-12-20T02:58:36.694Z,36.05
2017-12-20T03:01:05.319Z,35.97
2017-12-20T03:03:33.798Z,35.50
2017-12-20T03:06:01.298Z,35.65
2017-12-20T03:08:29.554Z,34.33
2017-12-20T03:10:57.038Z,38.92
2017-12-20T03:13:24.534Z,34.95
2017-12-20T03:15:52.017Z,35.95
2017-12-20T03:18:19.514Z,37.38
2017-12-20T03:20:47.790Z,35.00
2017-12-20T03:23:16.050Z,32.95
2017-12-20T03:25:43.766Z,33.95
2017-12-20T03:28:12.059Z,34.30
2017-12-20T03:30:39.551Z,33.25
2017-12-20T03:33:07.044Z,34.00
2017-12-20T03:35:34.562Z,33.65
2017-12-20T03:38:02.400Z,32.50
2017-12-20T03:40:29.878Z,30.83
2017-12-20T03:42:57.382Z,34.30
2017-12-20T03:45:25.395Z,31.15
2017-12-20T03:47:53.245Z,33.03
2017-12-20T03:50:20.746Z,34.30
2017-12-20T03:52:49.154Z,32.13
2017-12-20T03:55:16.683Z,31.80
2017-12-20T03:57:44.191Z,31.25
2017-12-20T04:00:11.671Z,32.25
2017-12-20T04:02:39.154Z,31.95
2017-12-20T04:05:07.895Z,30.83
2017-12-20T04:07:35.762Z,31.05
2017-12-20T04:10:04.160Z,29.83
2017-12-20T04:12:31.666Z,31.08
2017-12-20T04:14:59.472Z,31.98
2017-12-20T04:17:26.954Z,29.33
2017-12-20T04:19:54.444Z,30.55
2017-12-20T04:22:23.048Z,31.62
2017-12-20T04:24:50.546Z,32.90
2017-12-20T04:27:18.046Z,32.03
2017-12-20T04:29:45.536Z,32.67
2017-12-20T04:32:13.027Z,33.25
2017-12-20T04:34:40.666Z,30.73
2017-12-20T04:37:08.783Z,32.88
2017-12-20T04:39:37.174Z,32.13
2017-12-20T04:42:05.623Z,33.55
2017-12-20T04:44:35.040Z,33.15
2017-12-20T04:47:03.894Z,31.48
2017-12-20T04:49:32.222Z,29.63
2017-12-20T04:52:01.802Z,28.73
2017-12-20T04:54:30.688Z,31.50
2017-12-20T04:56:59.112Z,29.45
2017-12-20T04:59:27.414Z,31.58
2017-12-20T05:01:54.889Z,29.10
2017-12-20T05:04:23.658Z,28.90
2017-12-20T05:06:51.149Z,31.73
2017-12-20T05:09:21.025Z,31.95
2017-12-20T05:11:49.040Z,30.92
2017-12-20T05:14:16.527Z,32.45
2017-12-20T05:16:44.006Z,32.70
2017-12-20T05:19:11.798Z,31.27
2017-12-20T05:21:39.513Z,32.85
2017-12-20T05:24:07.231Z,36.30
2017-12-20T05:26:35.518Z,38.97
2017-12-20T05:29:03.886Z,32.72
2017-12-20T05:31:32.136Z,38.00
2017-12-20T05:34:00.434Z,36.05
2017-12-20T05:36:29.613Z,38.97
2017-12-20T05:38:57.109Z,38.50
2017-12-20T05:41:26.727Z,39.97
2017-12-20T05:43:55.377Z,35.97
2017-12-20T05:46:24.862Z,41.00
2017-12-20T05:48:53.166Z,38.90
2017-12-20T05:51:20.654Z,38.17
2017-12-20T05:53:49.068Z,39.50
2017-12-20T05:56:16.579Z,39.75
2017-12-20T05:58:47.098Z,38.47
2017-12-20T06:01:14.927Z,40.80
2017-12-20T06:03:43.850Z,39.10
2017-12-20T06:06:12.186Z,40.12
2017-12-20T06:08:41.226Z,43.83
2017-12-20T06:11:10.667Z,41.53
2017-12-20T06:13:40.339Z,38.95
2017-12-20T06:16:09.342Z,41.03
2017-12-20T06:18:38.555Z,38.70
2017-12-20T06:21:06.831Z,43.33
2017-12-20T06:23:39.138Z,39.50
2017-12-20T06:26:08.115Z,43.87
2017-12-20T06:28:38.922Z,41.85
2017-12-20T06:31:06.646Z,43.38
2017-12-20T06:33:35.458Z,42.45
2017-12-20T06:36:04.229Z,42.28
2017-12-20T06:38:32.214Z,44.53
2017-12-20T06:41:00.694Z,46.25
2017-12-20T06:43:29.606Z,44.17
2017-12-20T06:45:57.921Z,41.10
2017-12-20T06:48:25.760Z,41.83
2017-12-20T06:50:53.858Z,41.25
2017-12-20T06:53:21.338Z,44.05
2017-12-20T06:55:51.204Z,40.72
2017-12-20T06:58:20.146Z,39.72
2017-12-20T07:00:49.390Z,38.97
2017-12-20T07:03:16.882Z,39.30
2017-12-20T07:05:44.378Z,35.42
2017-12-20T07:08:13.070Z,35.03
2017-12-20T07:10:41.490Z,36.42
2017-12-20T07:13:09.554Z,39.15
2017-12-20T07:15:37.038Z,36.38
2017-12-20T07:18:06.052Z,37.10
2017-12-20T07:20:34.530Z,37.42
2017-12-20T07:23:03.526Z,34.97
2017-12-20T07:25:32.543Z,35.88
2017-12-20T07:28:00.294Z,34.83
2017-12-20T07:30:27.784Z,34.88
2017-12-20T07:32:55.258Z,37.47
2017-12-20T07:35:26.718Z,37.28
2017-12-20T07:37:55.258Z,35.88
2017-12-20T07:40:22.758Z,36.63
2017-12-20T07:42:50.264Z,34.78
2017-12-20T07:45:17.756Z,34.03
2017-12-20T07:47:46.983Z,35.63
2017-12-20T07:50:15.558Z,35.53
2017-12-20T07:52:43.050Z,34.55
2017-12-20T07:55:10.539Z,37.33
2017-12-20T07:57:39.810Z,35.22
2017-12-20T08:00:09.400Z,36.00
2017-12-20T08:02:38.195Z,38.13
2017-12-20T08:05:08.078Z,32.15
2017-12-20T08:07:35.955Z,31.80
2017-12-20T08:10:03.454Z,34.95
2017-12-20T08:12:31.307Z,36.95
2017-12-20T08:15:00.376Z,36.17
2017-12-20T08:17:30.272Z,37.50
2017-12-20T08:19:57.826Z,37.92
2017-12-20T08:22:25.893Z,33.88
2017-12-20T08:24:55.403Z,36.20
2017-12-20T08:27:22.886Z,32.58
2017-12-20T08:29:50.726Z,35.25
2017-12-20T08:32:18.226Z,35.17
2017-12-20T08:34:48.497Z,38.08
2017-12-20T08:37:15.986Z,38.17
2017-12-20T08:39:46.558Z,38.22
2017-12-20T08:42:14.042Z,38.53
2017-12-20T08:44:43.568Z,36.13
2017-12-20T08:47:11.224Z,40.08
2017-12-20T08:49:40.410Z,37.97
2017-12-20T08:52:08.671Z,38.30
2017-12-20T08:54:36.686Z,36.88
2017-12-20T08:57:04.948Z,36.05
2017-12-20T08:59:32.589Z,34.72
2017-12-20T09:02:00.092Z,35.90
2017-12-20T09:04:27.592Z,34.28
2017-12-20T09:06:55.886Z,38.10
2017-12-20T09:09:23.390Z,34.58
2017-12-20T09:11:52.195Z,38.42
2017-12-20T09:14:20.455Z,39.60
2017-12-20T09:16:49.316Z,38.15
2017-12-20T09:19:17.535Z,39.58
2017-12-20T09:21:45.011Z,36.72
2017-12-20T09:24:13.300Z,38.97
2017-12-20T09:26:42.743Z,36.78
2017-12-20T09:29:10.255Z,38.33
2017-12-20T09:31:38.449Z,39.72
2017-12-20T09:34:07.129Z,37.72
2017-12-20T09:36:35.822Z,37.30
2017-12-20T09:39:04.345Z,37.70
2017-12-20T09:41:32.048Z,34.95
2017-12-20T09:43:59.538Z,35.10
2017-12-20T09:46:28.908Z,35.05
2017-12-20T09:48:57.017Z,36.17
2017-12-20T09:51:25.288Z,36.03
2017-12-20T09:53:53.996Z,39.38
2017-12-20T09:56:23.176Z,39.65
2017-12-20T09:58:51.583Z,39.70
2017-12-20T10:01:19.472Z,35.05
2017-12-20T10:03:48.354Z,35.30
2017-12-20T10:06:16.592Z,38.38
2017-12-20T10:08:44.346Z,38.65
2017-12-20T10:11:12.547Z,38.28
2017-12-20T10:13:41.554Z,38.83
2017-12-20T10:16:10.599Z,35.38
2017-12-20T10:18:39.181Z,35.42
2017-12-20T10:21:09.650Z,33.63
2017-12-20T10:23:37.234Z,36.63
2017-12-20T10:26:08.318Z,35.35
2017-12-20T10:28:35.802Z,33.92
2017-12-20T10:31:04.747Z,32.85
2017-12-20T10:33:33.054Z,33.45
2017-12-20T10:36:00.551Z,35.08
2017-12-20T10:38:28.219Z,32.78
2017-12-20T10:40:55.932Z,31.60
2017-12-20T10:43:23.415Z,35.35
2017-12-20T10:45:51.852Z,41.67
2017-12-20T10:48:20.614Z,31.60
2017-12-20T10:50:50.177Z,31.50
2017-12-20T10:53:17.899Z,38.17
2017-12-20T10:55:47.564Z,34.13
2017-12-20T10:58:15.478Z,25.30
2017-12-20T11:00:43.770Z,28.85
2017-12-20T11:03:11.256Z,27.90
2017-12-20T11:05:39.950Z,25.00
2017-12-20T11:08:08.055Z,26.20
2017-12-20T11:10:36.685Z,27.55
2017-12-20T11:13:04.166Z,28.05
2017-12-20T11:15:33.799Z,24.30
2017-12-20T11:18:01.298Z,22.55
2017-12-20T11:20:29.422Z,23.58
2017-12-20T11:22:56.943Z,25.10
2017-12-20T11:25:24.425Z,22.05
2017-12-20T11:27:51.913Z,25.75
2017-12-20T11:30:20.269Z,21.75
2017-12-20T11:32:47.754Z,20.17
2017-12-20T11:35:16.014Z,19.75
2017-12-20T11:37:43.531Z,20.40
2017-12-20T11:40:11.014Z,19.77
2017-12-20T11:42:39.676Z,21.52
2017-12-20T11:45:07.179Z,20.02
2017-12-20T11:47:34.662Z,21.92
2017-12-20T11:50:02.916Z,22.85
2017-12-20T11:52:30.764Z,19.12
2017-12-20T11:54:58.523Z,16.60
2017-12-20T11:57:26.689Z,18.73
2017-12-20T11:59:54.206Z,18.52
2017-12-20T12:02:22.460Z,18.00
2017-12-20T12:04:49.946Z,16.17
2017-12-20T12:07:17.466Z,15.77
2017-12-20T12:09:44.955Z,17.98
2017-12-20T12:12:13.217Z,16.80
2017-12-20T12:14:44.630Z,16.42
2017-12-20T12:17:13.352Z,12.35
2017-12-20T12:19:40.838Z,12.30
2017-12-20T12:22:08.403Z,12.30
2017-12-20T12:24:35.854Z,11.85
2017-12-20T12:27:03.347Z,11.32
2017-12-20T12:29:30.851Z,13.05
2017-12-20T12:31:59.120Z,14.13
2017-12-20T12:34:27.514Z,14.05
2017-12-20T12:36:55.814Z,11.75
2017-12-20T12:39:23.303Z,12.52
2017-12-20T12:41:50.782Z,12.85
2017-12-20T12:44:18.279Z,14.82
2017-12-20T12:46:45.769Z,12.95
2017-12-20T12:49:13.255Z,12.75
2017-12-20T12:51:40.775Z,12.23
2017-12-20T12:54:08.262Z,13.10
2017-12-20T12:56:35.747Z,12.57
2017-12-20T12:59:04.023Z,12.02
2017-12-20T13:01:32.345Z,11.82
2017-12-20T13:03:59.858Z,12.02
2017-12-20T13:06:28.618Z,12.70
2017-12-20T13:08:56.110Z,14.32
2017-12-20T13:11:24.375Z,12.80
2017-12-20T13:13:51.886Z,13.80
2017-12-20T13:16:20.250Z,15.10
2017-12-20T13:18:47.746Z,13.50
2017-12-20T13:21:16.026Z,13.98
2017-12-20T13:23:44.071Z,13.85
2017-12-20T13:26:11.558Z,15.38
2017-12-20T13:28:39.068Z,14.52
2017-12-20T13:31:09.270Z,15.93
2017-12-20T13:33:37.672Z,16.15
2017-12-20T13:36:05.198Z,13.23
2017-12-20T13:38:32.707Z,12.63
2017-12-20T13:41:00.194Z,13.45
2017-12-20T13:43:27.698Z,14.45
2017-12-20T13:45:55.195Z,13.95
2017-12-20T13:48:23.605Z,14.95
2017-12-20T13:50:51.138Z,14.20
2017-12-20T13:53:18.627Z,14.90
2017-12-20T13:55:46.175Z,14.18
2017-12-20T13:58:13.682Z,15.50
2017-12-20T14:00:41.170Z,14.55
2017-12-20T14:03:08.663Z,14.50
2017-12-20T14:05:36.627Z,14.57
2017-12-20T14:08:04.119Z,14.30
2017-12-20T14:10:31.618Z,14.50
2017-12-20T14:13:00.717Z,12.90
2017-12-20T14:15:28.202Z,14.13
2017-12-20T14:17:57.835Z,13.75
2017-12-20T14:20:25.373Z,12.90
2017-12-20T14:22:52.870Z,13.48
2017-12-20T14:25:20.353Z,14.10
2017-12-20T14:27:47.854Z,13.80
2017-12-20T14:30:16.115Z,14.07
2017-12-20T14:32:43.607Z,14.50
2017-12-20T14:35:11.886Z,14.25
2017-12-20T14:37:39.381Z,15.52
2017-12-20T14:40:06.866Z,13.62
2017-12-20T14:42:34.374Z,14.10
2017-12-20T14:45:01.870Z,13.85
2017-12-20T14:47:30.003Z,15.35
2017-12-20T14:49:57.523Z,13.00
2017-12-20T14:52:25.815Z,14.00
2017-12-20T14:54:54.072Z,13.05
2017-12-20T14:57:21.618Z,13.07
2017-12-20T14:59:49.106Z,13.50
2017-12-20T15:02:17.428Z,11.60
2017-12-20T15:04:44.946Z,11.55
2017-12-20T15:07:13.479Z,12.55
2017-12-20T15:09:41.004Z,12.68
2017-12-20T15:12:08.527Z,14.23
2017-12-20T15:14:36.238Z,13.88
2017-12-20T15:17:04.370Z,12.85
2017-12-20T15:19:31.906Z,13.25
2017-12-20T15:21:59.398Z,14.20
2017-12-20T15:24:27.650Z,12.93
2017-12-20T15:26:55.605Z,13.23
2017-12-20T15:29:23.090Z,12.30
2017-12-20T15:31:50.574Z,12.93
2017-12-20T15:34:21.122Z,14.55
2017-12-20T15:36:48.614Z,12.90
2017-12-20T15:39:16.120Z,12.75
2017-12-20T15:41:45.003Z,13.32
2017-12-20T15:44:13.431Z,13.62
2017-12-20T15:46:41.718Z,14.13
2017-12-20T15:49:09.230Z,14.30
2017-12-20T15:51:36.716Z,13.02
2017-12-20T15:54:04.214Z,11.90
2017-12-20T15:56:33.023Z,11.40
2017-12-20T15:59:01.278Z,11.95
2017-12-20T16:01:28.770Z,11.93
2017-12-20T16:03:57.054Z,13.70
2017-12-20T16:06:25.274Z,13.30
2017-12-20T16:08:52.766Z,13.68
2017-12-20T16:11:21.042Z,14.27
2017-12-20T16:13:49.298Z,13.55
2017-12-20T16:16:16.786Z,14.30
2017-12-20T16:18:45.078Z,14.90
2017-12-20T16:21:12.555Z,14.23
2017-12-20T16:23:40.113Z,13.57
2017-12-20T16:26:08.374Z,14.93
2017-12-20T16:28:35.863Z,15.27
2017-12-20T16:31:03.343Z,15.50
2017-12-20T16:33:31.594Z,15.60
2017-12-20T16:35:59.078Z,15.85
2017-12-20T16:38:26.590Z,14.80
2017-12-20T16:40:54.114Z,15.55
2017-12-20T16:43:22.371Z,15.55
2017-12-20T16:45:49.862Z,15.90
2017-12-20T16:48:18.127Z,17.30
2017-12-20T16:50:46.391Z,17.30
2017-12-20T16:53:13.878Z,18.55
2017-12-20T16:55:42.310Z,18.60
2017-12-20T16:58:11.112Z,18.00
2017-12-20T17:00:39.674Z,20.27
2017-12-20T17:03:08.773Z,19.60
2017-12-20T17:05:36.637Z,20.48
2017-12-20T17:08:04.126Z,19.77
2017-12-20T17:10:31.651Z,20.48
2017-12-20T17:12:59.135Z,19.80
2017-12-20T17:15:26.626Z,19.60
2017-12-20T17:17:54.898Z,21.95
2017-12-20T17:20:23.624Z,19.23
2017-12-20T17:22:53.482Z,21.00
2017-12-20T17:25:21.178Z,20.35
2017-12-20T17:27:48.694Z,22.60
2017-12-20T17:30:16.543Z,19.60
2017-12-20T17:32:44.903Z,18.87
2017-12-20T17:35:12.394Z,18.12
2017-12-20T17:37:39.886Z,18.60
2017-12-20T17:40:08.150Z,17.70
2017-12-20T17:42:36.962Z,16.70
2017-12-20T17:45:04.453Z,17.00
2017-12-20T17:47:31.959Z,19.15
2017-12-20T17:50:00.210Z,18.70
2017-12-20T17:52:27.758Z,18.45
2017-12-20T17:54:57.166Z,15.65
2017-12-20T17:57:25.566Z,17.80
2017-12-20T17:59:53.064Z,17.75
2017-12-20T18:02:20.582Z,18.12
2017-12-20T18:04:48.078Z,18.83
2017-12-20T18:07:15.570Z,19.20
2017-12-20T18:09:43.082Z,19.10
2017-12-20T18:12:10.590Z,19.45
2017-12-20T18:14:38.074Z,20.25
2017-12-20T18:17:05.606Z,19.00
2017-12-20T18:19:34.405Z,19.73
2017-12-20T18:22:01.902Z,20.12
2017-12-20T18:24:30.178Z,17.55
2017-12-20T18:26:57.668Z,18.70
2017-12-20T18:29:25.154Z,18.45
2017-12-20T18:31:53.598Z,20.30
2017-12-20T18:34:21.110Z,21.25
2017-12-20T18:36:48.602Z,19.80
2017-12-20T18:39:16.121Z,20.70
2017-12-20T18:41:44.495Z,22.17
2017-12-20T18:44:11.987Z,21.58
2017-12-20T18:46:40.260Z,21.70
2017-12-20T18:49:08.522Z,19.77
2017-12-20T18:51:36.010Z,19.87
2017-12-20T18:54:04.316Z,20.70
2017-12-20T18:56:31.807Z,19.73
2017-12-20T18:58:59.298Z,20.12
2017-12-20T19:01:27.581Z,23.23
2017-12-20T19:03:55.100Z,20.33
2017-12-20T19:06:24.798Z,19.55
2017-12-20T19:08:52.314Z,19.80
2017-12-20T19:11:19.810Z,22.02
2017-12-20T19:13:47.302Z,21.37
2017-12-20T19:16:14.890Z,22.25
2017-12-20T19:18:42.384Z,19.20
2017-12-20T19:21:09.878Z,17.27
2017-12-20T19:23:37.418Z,18.58
2017-12-20T19:26:04.908Z,19.65
2017-12-20T19:28:33.786Z,19.42
2017-12-20T19:31:01.308Z,19.10
2017-12-20T19:33:30.290Z,18.00
2017-12-20T19:35:57.819Z,18.05
2017-12-20T19:38:25.417Z,19.52
2017-12-20T19:40:56.930Z,18.92
2017-12-20T19:43:25.194Z,20.35
2017-12-20T19:45:53.811Z,21.85
2017-12-20T19:48:22.126Z,22.73
2017-12-20T19:50:49.623Z,23.00
2017-12-20T19:53:17.896Z,22.62
2017-12-20T19:55:46.147Z,20.42
2017-12-20T19:58:13.646Z,21.23
2017-12-20T20:00:41.158Z,23.38
2017-12-20T20:03:08.652Z,22.25
2017-12-20T20:05:37.834Z,23.52
2017-12-20T20:08:06.246Z,22.62
2017-12-20T20:10:33.758Z,25.05
2017-12-20T20:13:01.473Z,22.08
2017-12-20T20:15:28.978Z,23.42
2017-12-20T20:17:56.474Z,24.53
2017-12-20T20:20:25.639Z,23.77
2017-12-20T20:22:55.672Z,23.90
2017-12-20T20:25:23.162Z,25.35
2017-12-20T20:27:51.171Z,26.60
2017-12-20T20:30:18.678Z,24.10
2017-12-20T20:32:46.164Z,23.08
2017-12-20T20:35:14.455Z,23.75
2017-12-20T20:37:41.970Z,25.58
2017-12-20T20:40:10.250Z,23.62
2017-12-20T20:42:37.775Z,22.65
2017-12-20T20:45:05.270Z,23.40
2017-12-20T20:47:32.774Z,23.67
2017-12-20T20:50:00.259Z,24.30
2017-12-20T20:52:28.569Z,24.27
2017-12-20T20:54:56.066Z,25.50
2017-12-20T20:57:23.554Z,24.10
2017-12-20T20:59:51.086Z,25.70
2017-12-20T21:02:18.570Z,24.77
2017-12-20T21:04:46.066Z,27.00
2017-12-20T21:07:13.588Z,27.05
2017-12-20T21:09:41.958Z,28.10
2017-12-20T21:12:09.459Z,24.95
2017-12-20T21:14:36.981Z,26.12
2017-12-20T21:17:05.162Z,25.00
2017-12-20T21:19:32.758Z,27.83
2017-12-20T21:22:01.078Z,27.80
2017-12-20T21:24:28.566Z,28.58
2017-12-20T21:26:56.822Z,26.98
2017-12-20T21:29:24.332Z,28.70
2017-12-20T21:31:52.450Z,26.17
2017-12-20T21:34:20.150Z,28.92
2017-12-20T21:36:48.507Z,26.80
2017-12-20T21:39:15.994Z,28.98
2017-12-20T21:41:43.490Z,24.52
2017-12-20T21:44:10.994Z,27.30
2017-12-20T21:46:39.246Z,26.33
2017-12-20T21:49:07.526Z,27.17
2017-12-20T21:51:35.026Z,28.90
2017-12-20T21:54:02.519Z,28.50
2017-12-20T21:56:29.998Z,29.70
2017-12-20T21:58:57.582Z,28.05
2017-12-20T22:01:25.374Z,28.60
2017-12-20T22:03:52.860Z,28.75
2017-12-20T22:06:22.052Z,29.05
2017-12-20T22:08:50.482Z,29.70
2017-12-20T22:11:17.966Z,26.23
2017-12-20T22:13:45.479Z,26.05
2017-12-20T22:16:12.974Z,24.90
2017-12-20T22:18:41.226Z,25.27
2017-12-20T22:21:09.773Z,27.17
2017-12-20T22:23:37.613Z,24.63
2017-12-20T22:26:05.097Z,30.55
2017-12-20T22:28:32.622Z,27.23
2017-12-20T22:31:00.130Z,26.73
2017-12-20T22:33:27.837Z,27.08
2017-12-20T22:35:57.546Z,28.50
2017-12-20T22:38:25.804Z,27.65
2017-12-20T22:40:54.222Z,22.85
2017-12-20T22:43:21.738Z,24.33
2017-12-20T22:45:50.145Z,25.92
2017-12-20T22:48:18.134Z,23.95
2017-12-20T22:50:45.939Z,25.02
2017-12-20T22:53:13.422Z,28.65
2017-12-20T22:55:41.683Z,27.73
2017-12-20T22:58:09.218Z,29.92
2017-12-20T23:00:37.323Z,31.92
2017-12-20T23:03:05.715Z,31.00
2017-12-20T23:05:33.997Z,29.75
2017-12-20T23:08:01.478Z,30.00
2017-12-20T23:10:28.962Z,33.45
2017-12-20T23:12:57.170Z,31.58
2017-12-20T23:15:26.198Z,32.05
2017-12-20T23:17:54.154Z,32.17
2017-12-20T23:20:22.434Z,32.80
2017-12-20T23:22:50.686Z,33.35
2017-12-20T23:25:18.178Z,30.30
2017-12-20T23:27:45.706Z,31.08
2017-12-20T23:30:13.434Z,32.10
2017-12-20T23:32:40.914Z,33.25
2017-12-20T23:35:08.431Z,31.20
2017-12-20T23:37:35.922Z,30.67
2017-12-20T23:40:03.426Z,34.67
2017-12-20T23:42:31.702Z,33.70
2017-12-20T23:44:59.188Z,34.00
2017-12-20T23:47:26.674Z,34.53
2017-12-20T23:49:54.178Z,34.85
2017-12-20T23:52:22.454Z,33.92
2017-12-20T23:54:50.709Z,35.55
2017-12-20T23:57:18.210Z,34.50
2017-12-20T23:59:46.314Z,35.13
